Chula Vista, CA (91913)

8:39 AM PST en Febrero 01, 2015 (GMT -0800)
RAWS SAN MIGUEL CA US | Change Station
CLOSE
Current Station
Estación meteorológica personal
Location: Bonita, CA
Altura: 424 ft
Estaciones meteorológicas cercanas

Alt 424 ft 32.69 °N, 116.97 °W | Updated 49 minutes ago

Despejado
Despejado
54 ° F
Sensación térmica 54 ° F
N
3
Viento Variable Viento desde NE
Gusts 6.0 mph

Hoy
Alta -- | Baja -- ° F
--% Posibilidad de precipitaciones
Ayer
Alta -- | Baja -- ° F
Precip. -- pul
6:42 AM 5:20 PM
Gibosa creciente, 95% visible
Presión 30.09 pul
Visibilidad 10.0 Millas
Nubes Despejado
Punto de rocío 48 ° F
Humedad 79%
Precipitaciones 0.00 pul
Espesor de la nieve No disponible.
UV 1 de una escala de 12
Polen 1.60 de una escala de 12
Calidad del aire No disponible.
Flu Activity No disponible.
METAR KSDM 011553Z AUTO 12005KT 10SM CLR 12/09 A3009 RMK AO2 SLP188 T01170089

More Conditions Fewer Conditions

Presión 30.09 pul
Visibilidad 10.0 Millas
Nubes Despejado
Punto de rocío 48 ° F
Humedad 79%
Precipitaciones 0.00 pul
Espesor de la nieve No disponible.
UV 1 de una escala de 12
Polen 1.60 de una escala de 12
Calidad del aire No disponible.
Flu Activity No disponible.
METAR KSDM 011553Z AUTO 12005KT 10SM CLR 12/09 A3009 RMK AO2 SLP188 T01170089

More Conditions Fewer Conditions

10-Day Weather Forecast

Almanac

Astronomía

Feb. 01, 2015 Salida Puesta
Hora real
Crepúsculo civil
Crepúsculo náutico
Crepúsculo astronómico
Luna
Horas de luz
Horas de luz
Tomorrow will be .
, % of the Moon is Illuminated

Extremos de hoy

Máximos del estado Bajos del estado

Community

WunderPhotos

Upload Photos

1,792,362 ¡fotos cargadas!

WunderBlogs® & News

Nearby

Calidad del aire

  Calidad del aire Índice AQ Contaminante
Not available.

Grosos de nieve

Estación Profundido Altura

Actividad de terremotos

Ciudad Distance Mag. Tiempo y dato
Magnitud mínima muestra es 2,5.

Temperaturas de aguas costeras

Lugar Temperatura

Estaciones meteorológicas cercanas